sensor_id;sensor_type;location;lat;lon;timestamp;P1;durP1;ratioP1;P2;durP2;ratioP2
39448;SDS011;25151;45.566;9.382;2022-12-24T00:02:29;8.18;;;6.53;;
39448;SDS011;25151;45.566;9.382;2022-12-24T00:05:30;9.13;;;7.05;;
39448;SDS011;25151;45.566;9.382;2022-12-24T00:08:30;7.32;;;6.35;;
39448;SDS011;25151;45.566;9.382;2022-12-24T00:11:31;9.68;;;7.15;;
39448;SDS011;25151;45.566;9.382;2022-12-24T00:14:31;7.35;;;6.00;;
39448;SDS011;25151;45.566;9.382;2022-12-24T00:17:32;7.82;;;6.00;;
39448;SDS011;25151;45.566;9.382;2022-12-24T00:20:33;10.43;;;6.38;;
39448;SDS011;25151;45.566;9.382;2022-12-24T00:23:33;7.78;;;6.40;;
39448;SDS011;25151;45.566;9.382;2022-12-24T00:26:34;7.30;;;6.55;;
39448;SDS011;25151;45.566;9.382;2022-12-24T00:29:35;8.43;;;6.47;;
39448;SDS011;25151;45.566;9.382;2022-12-24T00:32:36;7.00;;;6.30;;
39448;SDS011;25151;45.566;9.382;2022-12-24T00:35:38;9.02;;;6.95;;
39448;SDS011;25151;45.566;9.382;2022-12-24T00:38:39;9.25;;;5.85;;
39448;SDS011;25151;45.566;9.382;2022-12-24T00:41:40;7.47;;;6.47;;
39448;SDS011;25151;45.566;9.382;2022-12-24T00:44:41;8.52;;;7.18;;
39448;SDS011;25151;45.566;9.382;2022-12-24T00:47:41;8.32;;;6.65;;
39448;SDS011;25151;45.566;9.382;2022-12-24T00:50:42;8.15;;;6.82;;
39448;SDS011;25151;45.566;9.382;2022-12-24T00:53:44;7.68;;;6.88;;
39448;SDS011;25151;45.566;9.382;2022-12-24T00:56:44;8.13;;;6.65;;
39448;SDS011;25151;45.566;9.382;2022-12-24T00:59:45;8.68;;;6.75;;
39448;SDS011;25151;45.566;9.382;2022-12-24T01:02:45;8.63;;;6.78;;
39448;SDS011;25151;45.566;9.382;2022-12-24T01:05:46;8.07;;;6.88;;
39448;SDS011;25151;45.566;9.382;2022-12-24T01:08:50;12.10;;;7.22;;
39448;SDS011;25151;45.566;9.382;2022-12-24T01:11:51;9.52;;;7.43;;
39448;SDS011;25151;45.566;9.382;2022-12-24T01:14:52;8.15;;;6.63;;
39448;SDS011;25151;45.566;9.382;2022-12-24T01:17:53;9.70;;;6.85;;
39448;SDS011;25151;45.566;9.382;2022-12-24T01:20:58;9.18;;;6.40;;
39448;SDS011;25151;45.566;9.382;2022-12-24T01:24:00;6.68;;;5.97;;
39448;SDS011;25151;45.566;9.382;2022-12-24T01:27:01;7.53;;;6.47;;
39448;SDS011;25151;45.566;9.382;2022-12-24T01:30:06;7.20;;;5.85;;
39448;SDS011;25151;45.566;9.382;2022-12-24T01:33:08;7.22;;;6.03;;
39448;SDS011;25151;45.566;9.382;2022-12-24T01:36:09;8.38;;;7.30;;
39448;SDS011;25151;45.566;9.382;2022-12-24T01:39:10;9.88;;;6.50;;
39448;SDS011;25151;45.566;9.382;2022-12-24T01:42:16;8.68;;;6.47;;
39448;SDS011;25151;45.566;9.382;2022-12-24T01:48:47;8.10;;;6.40;;
39448;SDS011;25151;45.566;9.382;2022-12-24T01:51:56;7.30;;;6.05;;
39448;SDS011;25151;45.566;9.382;2022-12-24T01:55:09;6.85;;;6.00;;
39448;SDS011;25151;45.566;9.382;2022-12-24T01:58:15;8.77;;;6.18;;
39448;SDS011;25151;45.566;9.382;2022-12-24T02:01:17;8.27;;;6.65;;
39448;SDS011;25151;45.566;9.382;2022-12-24T02:04:41;7.93;;;6.95;;
39448;SDS011;25151;45.566;9.382;2022-12-24T02:07:46;7.85;;;6.50;;
39448;SDS011;25151;45.566;9.382;2022-12-24T02:10:48;7.15;;;6.45;;
39448;SDS011;25151;45.566;9.382;2022-12-24T02:13:50;7.72;;;6.93;;
39448;SDS011;25151;45.566;9.382;2022-12-24T02:20:22;8.57;;;7.40;;
39448;SDS011;25151;45.566;9.382;2022-12-24T02:30:22;7.88;;;6.47;;
39448;SDS011;25151;45.566;9.382;2022-12-24T02:33:53;8.13;;;7.30;;
39448;SDS011;25151;45.566;9.382;2022-12-24T02:37:02;7.05;;;6.30;;
39448;SDS011;25151;45.566;9.382;2022-12-24T02:40:15;8.88;;;7.40;;
39448;SDS011;25151;45.566;9.382;2022-12-24T02:43:32;8.10;;;7.07;;
39448;SDS011;25151;45.566;9.382;2022-12-24T02:46:35;7.57;;;6.80;;
39448;SDS011;25151;45.566;9.382;2022-12-24T02:49:37;8.85;;;6.78;;
39448;SDS011;25151;45.566;9.382;2022-12-24T02:52:39;10.73;;;6.75;;
39448;SDS011;25151;45.566;9.382;2022-12-24T03:11:35;8.93;;;7.40;;
39448;SDS011;25151;45.566;9.382;2022-12-24T03:14:39;7.55;;;6.80;;
39448;SDS011;25151;45.566;9.382;2022-12-24T03:17:42;9.85;;;7.57;;
39448;SDS011;25151;45.566;9.382;2022-12-24T03:24:25;9.02;;;6.43;;
39448;SDS011;25151;45.566;9.382;2022-12-24T03:27:26;8.63;;;7.05;;
39448;SDS011;25151;45.566;9.382;2022-12-24T03:30:29;8.27;;;7.18;;
39448;SDS011;25151;45.566;9.382;2022-12-24T03:33:30;9.52;;;6.90;;
39448;SDS011;25151;45.566;9.382;2022-12-24T03:36:30;8.38;;;7.05;;
39448;SDS011;25151;45.566;9.382;2022-12-24T03:39:31;8.77;;;7.88;;
39448;SDS011;25151;45.566;9.382;2022-12-24T03:42:32;8.60;;;7.70;;
39448;SDS011;25151;45.566;9.382;2022-12-24T03:45:32;7.85;;;6.95;;
39448;SDS011;25151;45.566;9.382;2022-12-24T03:48:33;8.48;;;7.47;;
39448;SDS011;25151;45.566;9.382;2022-12-24T03:51:34;9.15;;;7.43;;
39448;SDS011;25151;45.566;9.382;2022-12-24T03:54:35;10.65;;;7.25;;
39448;SDS011;25151;45.566;9.382;2022-12-24T03:57:36;11.18;;;7.40;;
39448;SDS011;25151;45.566;9.382;2022-12-24T04:00:36;8.52;;;7.43;;
39448;SDS011;25151;45.566;9.382;2022-12-24T04:03:37;7.65;;;6.85;;
39448;SDS011;25151;45.566;9.382;2022-12-24T04:06:38;9.38;;;7.20;;
39448;SDS011;25151;45.566;9.382;2022-12-24T04:09:38;8.88;;;7.85;;
39448;SDS011;25151;45.566;9.382;2022-12-24T04:12:39;7.80;;;7.00;;
39448;SDS011;25151;45.566;9.382;2022-12-24T04:15:40;7.72;;;6.70;;
39448;SDS011;25151;45.566;9.382;2022-12-24T04:18:41;10.13;;;7.88;;
39448;SDS011;25151;45.566;9.382;2022-12-24T04:21:42;8.27;;;7.47;;
39448;SDS011;25151;45.566;9.382;2022-12-24T04:24:43;8.20;;;7.20;;
39448;SDS011;25151;45.566;9.382;2022-12-24T04:27:43;9.40;;;7.63;;
39448;SDS011;25151;45.566;9.382;2022-12-24T04:30:44;7.97;;;7.15;;
39448;SDS011;25151;45.566;9.382;2022-12-24T04:33:44;8.40;;;7.25;;
39448;SDS011;25151;45.566;9.382;2022-12-24T04:36:45;7.95;;;7.15;;
39448;SDS011;25151;45.566;9.382;2022-12-24T04:39:46;8.35;;;7.45;;
39448;SDS011;25151;45.566;9.382;2022-12-24T04:42:47;8.35;;;7.05;;
39448;SDS011;25151;45.566;9.382;2022-12-24T04:45:48;8.55;;;7.32;;
39448;SDS011;25151;45.566;9.382;2022-12-24T04:48:49;8.48;;;7.40;;
39448;SDS011;25151;45.566;9.382;2022-12-24T04:51:52;9.57;;;7.90;;
39448;SDS011;25151;45.566;9.382;2022-12-24T04:54:52;9.93;;;8.70;;
39448;SDS011;25151;45.566;9.382;2022-12-24T04:57:53;8.98;;;7.03;;
39448;SDS011;25151;45.566;9.382;2022-12-24T05:00:53;8.35;;;7.32;;
39448;SDS011;25151;45.566;9.382;2022-12-24T05:03:55;8.82;;;7.70;;
39448;SDS011;25151;45.566;9.382;2022-12-24T05:06:55;9.32;;;7.57;;
39448;SDS011;25151;45.566;9.382;2022-12-24T05:09:56;8.77;;;7.47;;
39448;SDS011;25151;45.566;9.382;2022-12-24T05:12:57;7.78;;;6.97;;
39448;SDS011;25151;45.566;9.382;2022-12-24T05:15:57;8.55;;;7.25;;
39448;SDS011;25151;45.566;9.382;2022-12-24T05:18:59;8.38;;;7.53;;
39448;SDS011;25151;45.566;9.382;2022-12-24T05:22:00;9.50;;;8.18;;
39448;SDS011;25151;45.566;9.382;2022-12-24T05:25:19;8.23;;;7.35;;
39448;SDS011;25151;45.566;9.382;2022-12-24T05:28:38;9.80;;;8.35;;
39448;SDS011;25151;45.566;9.382;2022-12-24T05:31:39;10.32;;;8.15;;
39448;SDS011;25151;45.566;9.382;2022-12-24T05:34:41;9.68;;;7.70;;
39448;SDS011;25151;45.566;9.382;2022-12-24T05:37:41;9.65;;;8.10;;
39448;SDS011;25151;45.566;9.382;2022-12-24T05:40:42;12.65;;;8.48;;
39448;SDS011;25151;45.566;9.382;2022-12-24T05:43:43;9.15;;;7.47;;
39448;SDS011;25151;45.566;9.382;2022-12-24T05:46:44;9.82;;;7.43;;
39448;SDS011;25151;45.566;9.382;2022-12-24T05:49:45;10.63;;;8.15;;
39448;SDS011;25151;45.566;9.382;2022-12-24T05:52:45;9.23;;;7.75;;
39448;SDS011;25151;45.566;9.382;2022-12-24T05:55:46;9.35;;;8.18;;
39448;SDS011;25151;45.566;9.382;2022-12-24T05:58:47;8.65;;;7.50;;
39448;SDS011;25151;45.566;9.382;2022-12-24T06:01:49;10.05;;;8.13;;
39448;SDS011;25151;45.566;9.382;2022-12-24T06:04:50;10.55;;;8.30;;
39448;SDS011;25151;45.566;9.382;2022-12-24T06:07:51;9.05;;;7.85;;
39448;SDS011;25151;45.566;9.382;2022-12-24T06:10:56;9.00;;;7.78;;
39448;SDS011;25151;45.566;9.382;2022-12-24T06:13:57;8.88;;;7.88;;
39448;SDS011;25151;45.566;9.382;2022-12-24T06:16:58;8.88;;;7.97;;
39448;SDS011;25151;45.566;9.382;2022-12-24T06:19:58;9.13;;;7.72;;
39448;SDS011;25151;45.566;9.382;2022-12-24T06:22:59;9.38;;;8.20;;
39448;SDS011;25151;45.566;9.382;2022-12-24T06:26:00;9.05;;;8.02;;
39448;SDS011;25151;45.566;9.382;2022-12-24T06:29:02;9.68;;;8.05;;
39448;SDS011;25151;45.566;9.382;2022-12-24T06:32:04;8.73;;;7.85;;
39448;SDS011;25151;45.566;9.382;2022-12-24T06:35:04;9.15;;;7.65;;
39448;SDS011;25151;45.566;9.382;2022-12-24T06:38:05;8.95;;;7.90;;
39448;SDS011;25151;45.566;9.382;2022-12-24T06:41:06;9.90;;;8.20;;
39448;SDS011;25151;45.566;9.382;2022-12-24T06:44:07;8.93;;;7.75;;
39448;SDS011;25151;45.566;9.382;2022-12-24T06:47:10;9.25;;;8.25;;
39448;SDS011;25151;45.566;9.382;2022-12-24T06:50:10;8.60;;;7.70;;
39448;SDS011;25151;45.566;9.382;2022-12-24T06:53:11;10.10;;;8.10;;
39448;SDS011;25151;45.566;9.382;2022-12-24T06:56:12;10.63;;;8.48;;
39448;SDS011;25151;45.566;9.382;2022-12-24T06:59:13;10.10;;;8.65;;
39448;SDS011;25151;45.566;9.382;2022-12-24T07:02:14;8.73;;;7.82;;
39448;SDS011;25151;45.566;9.382;2022-12-24T07:05:15;9.55;;;8.02;;
39448;SDS011;25151;45.566;9.382;2022-12-24T07:08:15;9.20;;;8.20;;
39448;SDS011;25151;45.566;9.382;2022-12-24T07:11:16;10.73;;;8.55;;
39448;SDS011;25151;45.566;9.382;2022-12-24T07:14:17;9.25;;;8.23;;
39448;SDS011;25151;45.566;9.382;2022-12-24T07:17:18;10.13;;;8.88;;
39448;SDS011;25151;45.566;9.382;2022-12-24T07:20:18;9.68;;;8.05;;
39448;SDS011;25151;45.566;9.382;2022-12-24T07:23:19;9.82;;;8.82;;
39448;SDS011;25151;45.566;9.382;2022-12-24T07:26:20;8.95;;;7.78;;
39448;SDS011;25151;45.566;9.382;2022-12-24T07:29:20;11.75;;;8.50;;
39448;SDS011;25151;45.566;9.382;2022-12-24T07:32:21;9.70;;;8.32;;
39448;SDS011;25151;45.566;9.382;2022-12-24T07:35:21;12.43;;;8.40;;
39448;SDS011;25151;45.566;9.382;2022-12-24T07:38:22;11.77;;;8.57;;
39448;SDS011;25151;45.566;9.382;2022-12-24T07:41:23;12.70;;;7.72;;
39448;SDS011;25151;45.566;9.382;2022-12-24T07:44:23;11.95;;;8.45;;
39448;SDS011;25151;45.566;9.382;2022-12-24T07:47:24;9.55;;;8.27;;
39448;SDS011;25151;45.566;9.382;2022-12-24T07:50:25;10.18;;;7.80;;
39448;SDS011;25151;45.566;9.382;2022-12-24T07:53:26;12.23;;;8.05;;
39448;SDS011;25151;45.566;9.382;2022-12-24T07:56:28;13.30;;;8.27;;
39448;SDS011;25151;45.566;9.382;2022-12-24T07:59:29;12.05;;;8.48;;
39448;SDS011;25151;45.566;9.382;2022-12-24T08:02:30;11.90;;;8.30;;
39448;SDS011;25151;45.566;9.382;2022-12-24T08:05:37;13.32;;;8.77;;
39448;SDS011;25151;45.566;9.382;2022-12-24T08:08:38;10.65;;;9.20;;
39448;SDS011;25151;45.566;9.382;2022-12-24T08:11:41;16.17;;;8.90;;
39448;SDS011;25151;45.566;9.382;2022-12-24T08:14:42;10.27;;;8.90;;
39448;SDS011;25151;45.566;9.382;2022-12-24T08:17:43;15.93;;;9.18;;
39448;SDS011;25151;45.566;9.382;2022-12-24T08:20:44;14.45;;;9.38;;
39448;SDS011;25151;45.566;9.382;2022-12-24T08:23:46;14.38;;;9.35;;
39448;SDS011;25151;45.566;9.382;2022-12-24T08:26:47;12.85;;;10.52;;
39448;SDS011;25151;45.566;9.382;2022-12-24T08:29:48;12.48;;;9.45;;
39448;SDS011;25151;45.566;9.382;2022-12-24T08:32:49;15.75;;;9.57;;
39448;SDS011;25151;45.566;9.382;2022-12-24T08:35:51;12.63;;;9.05;;
39448;SDS011;25151;45.566;9.382;2022-12-24T08:38:53;12.18;;;8.70;;
39448;SDS011;25151;45.566;9.382;2022-12-24T08:41:54;13.63;;;10.25;;
39448;SDS011;25151;45.566;9.382;2022-12-24T08:44:55;12.02;;;9.13;;
39448;SDS011;25151;45.566;9.382;2022-12-24T08:47:57;17.45;;;9.57;;
39448;SDS011;25151;45.566;9.382;2022-12-24T08:50:59;12.73;;;10.48;;
39448;SDS011;25151;45.566;9.382;2022-12-24T08:54:00;11.57;;;8.77;;
39448;SDS011;25151;45.566;9.382;2022-12-24T08:57:01;17.75;;;9.55;;
39448;SDS011;25151;45.566;9.382;2022-12-24T09:00:03;10.85;;;9.25;;
39448;SDS011;25151;45.566;9.382;2022-12-24T09:03:06;11.18;;;8.65;;
39448;SDS011;25151;45.566;9.382;2022-12-24T09:06:07;12.88;;;8.50;;
39448;SDS011;25151;45.566;9.382;2022-12-24T09:09:07;10.57;;;8.10;;
39448;SDS011;25151;45.566;9.382;2022-12-24T09:12:08;11.77;;;8.60;;
39448;SDS011;25151;45.566;9.382;2022-12-24T09:15:10;12.60;;;9.00;;
39448;SDS011;25151;45.566;9.382;2022-12-24T09:18:13;9.40;;;8.00;;
39448;SDS011;25151;45.566;9.382;2022-12-24T09:21:14;12.30;;;9.20;;
39448;SDS011;25151;45.566;9.382;2022-12-24T09:24:16;11.18;;;8.38;;
39448;SDS011;25151;45.566;9.382;2022-12-24T09:27:17;9.45;;;7.72;;
39448;SDS011;25151;45.566;9.382;2022-12-24T09:30:18;10.27;;;8.55;;
39448;SDS011;25151;45.566;9.382;2022-12-24T09:33:20;12.73;;;8.60;;
39448;SDS011;25151;45.566;9.382;2022-12-24T09:36:20;10.23;;;8.23;;
39448;SDS011;25151;45.566;9.382;2022-12-24T09:39:22;11.27;;;8.68;;
39448;SDS011;25151;45.566;9.382;2022-12-24T09:42:30;11.18;;;8.50;;
39448;SDS011;25151;45.566;9.382;2022-12-24T09:48:40;13.10;;;8.50;;
39448;SDS011;25151;45.566;9.382;2022-12-24T09:51:47;10.38;;;9.13;;
39448;SDS011;25151;45.566;9.382;2022-12-24T09:55:22;10.32;;;8.63;;
39448;SDS011;25151;45.566;9.382;2022-12-24T09:58:26;10.18;;;8.45;;
39448;SDS011;25151;45.566;9.382;2022-12-24T10:01:33;10.10;;;8.40;;
39448;SDS011;25151;45.566;9.382;2022-12-24T10:04:34;10.95;;;8.32;;
39448;SDS011;25151;45.566;9.382;2022-12-24T10:10:59;12.63;;;9.32;;
39448;SDS011;25151;45.566;9.382;2022-12-24T10:24:24;11.32;;;8.90;;
39448;SDS011;25151;45.566;9.382;2022-12-24T10:27:32;11.38;;;9.60;;
39448;SDS011;25151;45.566;9.382;2022-12-24T10:30:38;11.02;;;9.07;;
39448;SDS011;25151;45.566;9.382;2022-12-24T10:33:44;13.93;;;9.77;;
39448;SDS011;25151;45.566;9.382;2022-12-24T10:36:51;14.03;;;9.30;;
39448;SDS011;25151;45.566;9.382;2022-12-24T10:39:51;12.52;;;9.73;;
39448;SDS011;25151;45.566;9.382;2022-12-24T10:42:56;11.35;;;9.15;;
39448;SDS011;25151;45.566;9.382;2022-12-24T10:46:02;13.35;;;9.52;;
39448;SDS011;25151;45.566;9.382;2022-12-24T10:49:11;12.43;;;8.65;;
39448;SDS011;25151;45.566;9.382;2022-12-24T10:52:18;10.30;;;7.87;;
39448;SDS011;25151;45.566;9.382;2022-12-24T10:55:22;12.35;;;9.43;;
39448;SDS011;25151;45.566;9.382;2022-12-24T10:58:24;14.27;;;9.38;;
39448;SDS011;25151;45.566;9.382;2022-12-24T11:01:44;12.90;;;9.15;;
39448;SDS011;25151;45.566;9.382;2022-12-24T11:04:46;12.68;;;9.10;;
39448;SDS011;25151;45.566;9.382;2022-12-24T11:07:58;15.43;;;9.18;;
39448;SDS011;25151;45.566;9.382;2022-12-24T11:14:02;16.50;;;9.05;;
39448;SDS011;25151;45.566;9.382;2022-12-24T11:17:04;13.20;;;9.40;;
39448;SDS011;25151;45.566;9.382;2022-12-24T11:20:05;13.13;;;8.40;;
39448;SDS011;25151;45.566;9.382;2022-12-24T11:23:19;14.15;;;9.43;;
39448;SDS011;25151;45.566;9.382;2022-12-24T11:26:22;13.77;;;9.65;;
39448;SDS011;25151;45.566;9.382;2022-12-24T11:29:27;14.57;;;8.90;;
39448;SDS011;25151;45.566;9.382;2022-12-24T11:32:28;13.13;;;10.13;;
39448;SDS011;25151;45.566;9.382;2022-12-24T11:35:30;12.50;;;9.27;;
39448;SDS011;25151;45.566;9.382;2022-12-24T11:38:34;11.77;;;8.80;;
39448;SDS011;25151;45.566;9.382;2022-12-24T11:41:35;12.82;;;8.68;;
39448;SDS011;25151;45.566;9.382;2022-12-24T11:44:38;10.50;;;8.75;;
39448;SDS011;25151;45.566;9.382;2022-12-24T11:50:54;15.55;;;7.90;;
39448;SDS011;25151;45.566;9.382;2022-12-24T11:54:32;17.52;;;9.27;;
39448;SDS011;25151;45.566;9.382;2022-12-24T11:57:35;15.30;;;8.88;;
39448;SDS011;25151;45.566;9.382;2022-12-24T12:00:48;12.05;;;9.13;;
39448;SDS011;25151;45.566;9.382;2022-12-24T12:03:52;14.07;;;8.38;;
39448;SDS011;25151;45.566;9.382;2022-12-24T12:10:31;12.93;;;8.57;;
39448;SDS011;25151;45.566;9.382;2022-12-24T12:13:36;12.10;;;8.48;;
39448;SDS011;25151;45.566;9.382;2022-12-24T12:16:50;11.05;;;8.75;;
39448;SDS011;25151;45.566;9.382;2022-12-24T12:26:33;15.50;;;8.93;;
39448;SDS011;25151;45.566;9.382;2022-12-24T12:29:37;13.88;;;8.93;;
39448;SDS011;25151;45.566;9.382;2022-12-24T12:33:10;17.75;;;10.13;;
39448;SDS011;25151;45.566;9.382;2022-12-24T12:36:06;12.90;;;9.98;;
39448;SDS011;25151;45.566;9.382;2022-12-24T12:39:10;12.85;;;9.95;;
39448;SDS011;25151;45.566;9.382;2022-12-24T12:42:15;13.57;;;8.90;;
39448;SDS011;25151;45.566;9.382;2022-12-24T12:52:17;15.27;;;10.40;;
39448;SDS011;25151;45.566;9.382;2022-12-24T12:59:10;16.30;;;9.73;;
39448;SDS011;25151;45.566;9.382;2022-12-24T13:05:49;16.15;;;9.95;;
39448;SDS011;25151;45.566;9.382;2022-12-24T13:09:17;18.58;;;10.43;;
39448;SDS011;25151;45.566;9.382;2022-12-24T13:12:48;16.33;;;10.93;;
39448;SDS011;25151;45.566;9.382;2022-12-24T13:22:33;18.60;;;11.23;;
39448;SDS011;25151;45.566;9.382;2022-12-24T13:25:38;16.75;;;12.30;;
39448;SDS011;25151;45.566;9.382;2022-12-24T13:28:41;13.50;;;10.43;;
39448;SDS011;25151;45.566;9.382;2022-12-24T13:31:43;17.13;;;10.50;;
39448;SDS011;25151;45.566;9.382;2022-12-24T13:34:47;16.63;;;11.15;;
39448;SDS011;25151;45.566;9.382;2022-12-24T13:37:53;16.23;;;11.10;;
39448;SDS011;25151;45.566;9.382;2022-12-24T13:44:33;22.95;;;12.20;;
39448;SDS011;25151;45.566;9.382;2022-12-24T13:47:34;19.13;;;11.55;;
39448;SDS011;25151;45.566;9.382;2022-12-24T13:50:54;18.42;;;11.43;;
39448;SDS011;25151;45.566;9.382;2022-12-24T13:53:57;16.10;;;9.98;;
39448;SDS011;25151;45.566;9.382;2022-12-24T13:56:59;18.10;;;11.35;;
39448;SDS011;25151;45.566;9.382;2022-12-24T14:00:06;20.48;;;10.80;;
39448;SDS011;25151;45.566;9.382;2022-12-24T14:06:43;17.42;;;10.95;;
39448;SDS011;25151;45.566;9.382;2022-12-24T14:09:50;16.95;;;12.02;;
39448;SDS011;25151;45.566;9.382;2022-12-24T14:12:52;17.20;;;12.43;;
39448;SDS011;25151;45.566;9.382;2022-12-24T14:19:01;15.35;;;11.25;;
39448;SDS011;25151;45.566;9.382;2022-12-24T14:25:22;16.42;;;11.70;;
39448;SDS011;25151;45.566;9.382;2022-12-24T14:28:27;15.05;;;11.50;;
39448;SDS011;25151;45.566;9.382;2022-12-24T14:31:51;15.05;;;10.95;;
39448;SDS011;25151;45.566;9.382;2022-12-24T14:38:15;14.52;;;11.05;;
39448;SDS011;25151;45.566;9.382;2022-12-24T14:48:18;18.13;;;13.00;;
39448;SDS011;25151;45.566;9.382;2022-12-24T14:51:35;17.00;;;12.23;;
39448;SDS011;25151;45.566;9.382;2022-12-24T14:54:49;18.00;;;12.05;;
39448;SDS011;25151;45.566;9.382;2022-12-24T14:57:50;18.58;;;13.18;;
39448;SDS011;25151;45.566;9.382;2022-12-24T15:04:24;16.17;;;12.88;;
39448;SDS011;25151;45.566;9.382;2022-12-24T15:07:25;17.48;;;12.68;;
39448;SDS011;25151;45.566;9.382;2022-12-24T15:13:39;15.85;;;12.35;;
39448;SDS011;25151;45.566;9.382;2022-12-24T15:16:51;19.98;;;12.73;;
39448;SDS011;25151;45.566;9.382;2022-12-24T15:19:58;17.38;;;12.52;;
39448;SDS011;25151;45.566;9.382;2022-12-24T15:23:00;18.75;;;13.02;;
39448;SDS011;25151;45.566;9.382;2022-12-24T15:26:13;17.48;;;12.93;;
39448;SDS011;25151;45.566;9.382;2022-12-24T15:29:27;19.27;;;13.35;;
39448;SDS011;25151;45.566;9.382;2022-12-24T15:32:29;20.08;;;12.88;;
39448;SDS011;25151;45.566;9.382;2022-12-24T15:35:50;20.75;;;14.00;;
39448;SDS011;25151;45.566;9.382;2022-12-24T15:38:55;17.55;;;12.93;;
39448;SDS011;25151;45.566;9.382;2022-12-24T15:41:58;17.70;;;13.40;;
39448;SDS011;25151;45.566;9.382;2022-12-24T15:45:16;20.45;;;12.70;;
39448;SDS011;25151;45.566;9.382;2022-12-24T15:48:23;19.73;;;13.07;;
39448;SDS011;25151;45.566;9.382;2022-12-24T15:51:34;19.13;;;14.30;;
39448;SDS011;25151;45.566;9.382;2022-12-24T15:54:38;17.38;;;12.90;;
39448;SDS011;25151;45.566;9.382;2022-12-24T15:57:44;19.27;;;12.35;;
39448;SDS011;25151;45.566;9.382;2022-12-24T16:00:58;16.25;;;13.25;;
39448;SDS011;25151;45.566;9.382;2022-12-24T16:04:11;16.10;;;12.85;;
39448;SDS011;25151;45.566;9.382;2022-12-24T16:07:24;18.08;;;12.65;;
39448;SDS011;25151;45.566;9.382;2022-12-24T16:10:47;16.10;;;12.45;;
39448;SDS011;25151;45.566;9.382;2022-12-24T16:16:58;16.77;;;13.20;;
39448;SDS011;25151;45.566;9.382;2022-12-24T16:20:01;16.75;;;13.10;;
39448;SDS011;25151;45.566;9.382;2022-12-24T16:23:14;16.02;;;12.02;;
39448;SDS011;25151;45.566;9.382;2022-12-24T16:26:18;15.85;;;12.32;;
39448;SDS011;25151;45.566;9.382;2022-12-24T16:29:19;17.83;;;12.65;;
39448;SDS011;25151;45.566;9.382;2022-12-24T16:35:35;18.00;;;12.02;;
39448;SDS011;25151;45.566;9.382;2022-12-24T16:38:37;16.40;;;11.77;;
39448;SDS011;25151;45.566;9.382;2022-12-24T16:41:57;17.60;;;12.45;;
39448;SDS011;25151;45.566;9.382;2022-12-24T16:45:19;15.90;;;11.02;;
39448;SDS011;25151;45.566;9.382;2022-12-24T16:48:21;15.48;;;11.43;;
39448;SDS011;25151;45.566;9.382;2022-12-24T16:51:26;15.43;;;11.57;;
39448;SDS011;25151;45.566;9.382;2022-12-24T16:54:28;14.05;;;11.02;;
39448;SDS011;25151;45.566;9.382;2022-12-24T16:57:31;15.10;;;11.32;;
39448;SDS011;25151;45.566;9.382;2022-12-24T17:00:33;16.52;;;11.32;;
39448;SDS011;25151;45.566;9.382;2022-12-24T17:03:35;15.48;;;11.20;;
39448;SDS011;25151;45.566;9.382;2022-12-24T17:06:36;14.27;;;11.07;;
39448;SDS011;25151;45.566;9.382;2022-12-24T17:09:38;12.75;;;10.43;;
39448;SDS011;25151;45.566;9.382;2022-12-24T17:12:41;15.38;;;11.88;;
39448;SDS011;25151;45.566;9.382;2022-12-24T17:15:43;13.98;;;12.02;;
39448;SDS011;25151;45.566;9.382;2022-12-24T17:18:44;15.18;;;11.82;;
39448;SDS011;25151;45.566;9.382;2022-12-24T17:21:49;14.98;;;12.52;;
39448;SDS011;25151;45.566;9.382;2022-12-24T17:24:50;13.48;;;10.98;;
39448;SDS011;25151;45.566;9.382;2022-12-24T17:27:52;14.45;;;11.52;;
39448;SDS011;25151;45.566;9.382;2022-12-24T17:30:53;17.48;;;11.85;;
39448;SDS011;25151;45.566;9.382;2022-12-24T17:33:54;14.57;;;11.20;;
39448;SDS011;25151;45.566;9.382;2022-12-24T17:36:54;16.05;;;12.35;;
39448;SDS011;25151;45.566;9.382;2022-12-24T17:39:55;16.30;;;11.73;;
39448;SDS011;25151;45.566;9.382;2022-12-24T17:42:56;18.30;;;12.48;;
39448;SDS011;25151;45.566;9.382;2022-12-24T17:45:58;18.38;;;12.43;;
39448;SDS011;25151;45.566;9.382;2022-12-24T17:48:59;15.80;;;11.70;;
39448;SDS011;25151;45.566;9.382;2022-12-24T17:52:00;17.33;;;11.93;;
39448;SDS011;25151;45.566;9.382;2022-12-24T17:55:01;16.60;;;12.80;;
39448;SDS011;25151;45.566;9.382;2022-12-24T17:58:02;16.52;;;11.38;;
39448;SDS011;25151;45.566;9.382;2022-12-24T18:01:11;16.48;;;12.93;;
39448;SDS011;25151;45.566;9.382;2022-12-24T18:04:16;17.05;;;12.40;;
39448;SDS011;25151;45.566;9.382;2022-12-24T18:07:17;15.50;;;12.27;;
39448;SDS011;25151;45.566;9.382;2022-12-24T18:10:19;14.05;;;11.73;;
39448;SDS011;25151;45.566;9.382;2022-12-24T18:13:20;16.83;;;11.98;;
39448;SDS011;25151;45.566;9.382;2022-12-24T18:16:23;14.45;;;11.95;;
39448;SDS011;25151;45.566;9.382;2022-12-24T18:19:28;15.20;;;12.50;;
39448;SDS011;25151;45.566;9.382;2022-12-24T18:22:31;15.25;;;11.90;;
39448;SDS011;25151;45.566;9.382;2022-12-24T18:25:35;14.02;;;12.40;;
39448;SDS011;25151;45.566;9.382;2022-12-24T18:28:39;13.57;;;11.55;;
39448;SDS011;25151;45.566;9.382;2022-12-24T18:31:43;17.38;;;12.68;;
39448;SDS011;25151;45.566;9.382;2022-12-24T18:34:49;16.65;;;12.27;;
39448;SDS011;25151;45.566;9.382;2022-12-24T18:37:54;17.30;;;12.95;;
39448;SDS011;25151;45.566;9.382;2022-12-24T18:41:01;19.77;;;12.82;;
39448;SDS011;25151;45.566;9.382;2022-12-24T18:44:08;18.63;;;13.48;;
39448;SDS011;25151;45.566;9.382;2022-12-24T18:47:13;16.48;;;12.65;;
39448;SDS011;25151;45.566;9.382;2022-12-24T18:50:15;16.65;;;12.50;;
39448;SDS011;25151;45.566;9.382;2022-12-24T18:53:20;17.88;;;13.10;;
39448;SDS011;25151;45.566;9.382;2022-12-24T18:56:22;20.58;;;13.10;;
39448;SDS011;25151;45.566;9.382;2022-12-24T18:59:24;21.38;;;13.30;;
39448;SDS011;25151;45.566;9.382;2022-12-24T19:02:27;16.75;;;13.18;;
39448;SDS011;25151;45.566;9.382;2022-12-24T19:05:29;14.15;;;10.90;;
39448;SDS011;25151;45.566;9.382;2022-12-24T19:08:33;16.52;;;12.43;;
39448;SDS011;25151;45.566;9.382;2022-12-24T19:11:37;16.23;;;12.50;;
39448;SDS011;25151;45.566;9.382;2022-12-24T19:14:40;18.10;;;12.25;;
39448;SDS011;25151;45.566;9.382;2022-12-24T19:17:44;17.13;;;12.27;;
39448;SDS011;25151;45.566;9.382;2022-12-24T19:20:47;14.98;;;11.73;;
39448;SDS011;25151;45.566;9.382;2022-12-24T19:23:51;15.20;;;12.52;;
39448;SDS011;25151;45.566;9.382;2022-12-24T19:26:56;19.65;;;12.93;;
39448;SDS011;25151;45.566;9.382;2022-12-24T19:29:57;15.00;;;11.77;;
39448;SDS011;25151;45.566;9.382;2022-12-24T19:32:58;14.93;;;12.38;;
39448;SDS011;25151;45.566;9.382;2022-12-24T19:36:03;15.95;;;12.32;;
39448;SDS011;25151;45.566;9.382;2022-12-24T19:39:08;16.33;;;12.32;;
39448;SDS011;25151;45.566;9.382;2022-12-24T19:42:09;13.90;;;11.38;;
39448;SDS011;25151;45.566;9.382;2022-12-24T19:45:09;15.98;;;11.60;;
39448;SDS011;25151;45.566;9.382;2022-12-24T19:48:11;17.40;;;11.55;;
39448;SDS011;25151;45.566;9.382;2022-12-24T19:51:11;16.70;;;11.80;;
39448;SDS011;25151;45.566;9.382;2022-12-24T19:54:13;16.92;;;12.05;;
39448;SDS011;25151;45.566;9.382;2022-12-24T19:57:14;16.10;;;11.82;;
39448;SDS011;25151;45.566;9.382;2022-12-24T20:00:15;15.52;;;11.75;;
39448;SDS011;25151;45.566;9.382;2022-12-24T20:03:16;13.48;;;10.20;;
39448;SDS011;25151;45.566;9.382;2022-12-24T20:06:18;14.73;;;11.93;;
39448;SDS011;25151;45.566;9.382;2022-12-24T20:09:20;14.52;;;11.32;;
39448;SDS011;25151;45.566;9.382;2022-12-24T20:12:21;15.23;;;11.23;;
39448;SDS011;25151;45.566;9.382;2022-12-24T20:15:21;14.85;;;11.52;;